Time;durP1;ratioP1;P1;durP2;ratioP2;P2;SDS_P1;SDS_P2;PMS_P1;PMS_P2;Temp;Humidity;BMP_temperature;BMP_pressure;BME280_temperature;BME280_humidity;BME280_pressure;Samples;Min_cycle;Max_cycle;Signal;HPM_P1;HPM_P2
2022/01/01 00:00:05;;;;;;;34.40;16.38;;;;;;;-1.13;79.73;98409.66;5086898;28;20044;-84
2022/01/01 00:02:38;;;;;;;32.00;16.25;;;;;;;-0.99;79.37;98433.13;5083072;28;20134;-82
2022/01/01 00:05:07;;;;;;;32.20;16.08;;;;;;;-1.23;79.33;98382.06;5080101;28;20107;-83
2022/01/01 00:07:35;;;;;;;33.60;16.27;;;;;;;-1.14;79.16;98384.88;5082375;28;20048;-82
2022/01/01 00:10:04;;;;;;;40.13;19.40;;;;;;;-0.91;79.39;98413.66;5079590;28;20139;-83
2022/01/01 00:12:30;;;;;;;31.92;16.13;;;;;;;-0.88;79.39;98415.44;5075648;28;20609;-81
2022/01/01 00:14:58;;;;;;;165.02;88.38;;;;;;;-0.86;79.61;98406.97;5071785;28;20067;-81
2022/01/01 00:17:25;;;;;;;43.58;24.15;;;;;;;-0.83;79.50;98396.78;5069463;28;20079;-81
2022/01/01 00:19:52;;;;;;;36.08;18.40;;;;;;;-0.84;79.17;98391.59;5072790;28;20060;-82
2022/01/01 00:22:19;;;;;;;29.52;14.38;;;;;;;-0.80;79.09;98398.53;5077112;28;20052;-84
2022/01/01 00:24:46;;;;;;;26.85;13.43;;;;;;;-0.79;79.10;98384.91;5093360;28;20060;-82
2022/01/01 00:27:13;;;;;;;31.05;14.15;;;;;;;-1.02;78.78;98350.13;5093521;28;20063;-80
2022/01/01 00:29:40;;;;;;;28.95;13.20;;;;;;;-0.89;79.13;98370.97;5093278;28;20102;-82
2022/01/01 00:32:07;;;;;;;28.85;13.60;;;;;;;-0.87;79.36;98379.56;5094207;28;20301;-82
2022/01/01 00:34:35;;;;;;;26.67;13.57;;;;;;;-0.88;79.04;98377.84;5094327;28;20153;-82
2022/01/01 00:37:05;;;;;;;25.85;13.45;;;;;;;-0.92;78.93;98378.59;5079398;28;20066;-82
2022/01/01 00:39:33;;;;;;;31.15;14.65;;;;;;;-0.95;79.26;98362.28;5089158;28;20082;-83
2022/01/01 00:42:00;;;;;;;26.27;12.63;;;;;;;-0.84;79.03;98378.78;5096396;28;20048;-81
2022/01/01 00:44:30;;;;;;;28.85;13.35;;;;;;;-0.80;78.55;98377.16;5095168;28;20056;-81
2022/01/01 00:46:57;;;;;;;28.00;13.55;;;;;;;-0.90;78.81;98342.75;5105607;28;20054;-81
2022/01/01 00:49:25;;;;;;;28.05;13.27;;;;;;;-0.76;79.03;98364.47;5106285;28;20051;-79
2022/01/01 00:51:52;;;;;;;25.38;12.80;;;;;;;-0.75;78.65;98358.50;5083058;28;20082;-85
2022/01/01 00:54:19;;;;;;;27.95;14.02;;;;;;;-0.66;78.54;98360.44;5075439;28;20059;-84
2022/01/01 00:56:46;;;;;;;25.77;12.98;;;;;;;-0.67;78.55;98351.88;5073220;28;20076;-80
2022/01/01 00:59:13;;;;;;;24.20;12.60;;;;;;;-0.71;78.77;98337.25;5072774;28;20102;-83
2022/01/01 01:01:40;;;;;;;26.52;14.10;;;;;;;-0.85;78.43;98306.13;5074404;28;20052;-85
2022/01/01 01:04:07;;;;;;;27.58;13.82;;;;;;;-0.54;78.71;98347.00;5088328;28;20546;-87
2022/01/01 01:06:34;;;;;;;28.98;14.15;;;;;;;-0.51;78.71;98345.41;5094002;28;20056;-84
2022/01/01 01:09:01;;;;;;;26.48;13.30;;;;;;;-0.43;78.31;98346.44;5096967;28;20064;-84
2022/01/01 01:11:29;;;;;;;26.85;12.63;;;;;;;-0.55;77.86;98317.06;5092631;28;20047;-83
2022/01/01 01:14:00;;;;;;;24.25;12.80;;;;;;;-0.47;78.27;98336.94;5077489;28;20080;-86
2022/01/01 01:16:28;;;;;;;30.00;13.80;;;;;;;-0.52;78.21;98329.97;5093764;28;20052;-89
2022/01/01 01:18:57;;;;;;;24.83;12.50;;;;;;;-0.60;78.45;98336.59;5098246;28;20147;-86
2022/01/01 01:21:25;;;;;;;26.90;13.32;;;;;;;-0.51;78.43;98337.69;5079123;28;20594;-89
2022/01/01 01:23:54;;;;;;;27.42;13.25;;;;;;;-0.60;78.46;98305.81;5102055;28;20055;-86
2022/01/01 01:26:23;;;;;;;28.35;12.98;;;;;;;-0.51;78.38;98318.88;5102236;28;20074;-88
2022/01/01 01:28:52;;;;;;;27.10;13.10;;;;;;;-0.46;78.46;98313.00;5098927;28;20052;-87
2022/01/01 01:31:19;;;;;;;24.10;12.23;;;;;;;-0.36;78.38;98318.38;5098111;28;20413;-90
2022/01/01 01:33:47;;;;;;;25.85;13.15;;;;;;;-0.38;78.35;98312.31;5103314;28;20151;-88
2022/01/01 01:36:14;;;;;;;24.40;12.88;;;;;;;-0.31;78.33;98320.19;5096678;28;20143;-86
2022/01/01 01:38:41;;;;;;;23.10;12.65;;;;;;;-0.46;77.91;98299.31;5096655;28;20058;-86
2022/01/01 01:41:11;;;;;;;25.75;13.80;;;;;;;-0.39;78.35;98321.69;5095954;28;20059;-84
2022/01/01 01:43:38;;;;;;;25.67;13.05;;;;;;;-0.40;78.60;98311.44;5095957;28;20052;-84
2022/01/01 01:46:06;;;;;;;27.15;12.98;;;;;;;-0.44;78.74;98287.38;5096509;28;20116;-83
2022/01/01 01:48:36;;;;;;;24.48;12.82;;;;;;;-0.25;78.10;98312.63;5094520;28;20600;-84
2022/01/01 01:51:03;;;;;;;24.92;13.20;;;;;;;-0.28;78.10;98296.28;5095260;28;20056;-83
2022/01/01 01:53:32;;;;;;;27.17;13.68;;;;;;;-0.35;78.13;98286.72;5086727;28;20138;-83
2022/01/01 01:56:00;;;;;;;25.45;13.25;;;;;;;-0.22;78.30;98296.41;5088525;28;20055;-84
2022/01/01 01:58:30;;;;;;;27.05;13.57;;;;;;;-0.16;78.39;98303.38;5086585;28;20056;-83
2022/01/01 02:03:25;;;;;;;31.05;14.43;;;;;;;-0.15;78.07;98300.84;5095505;28;20516;-83
2022/01/01 02:05:53;;;;;;;29.00;14.18;;;;;;;-0.26;78.34;98274.06;5095668;28;20410;-83
2022/01/01 02:08:20;;;;;;;28.90;14.15;;;;;;;-0.09;78.05;98303.53;5094531;28;20105;-82
2022/01/01 02:10:51;;;;;;;25.67;12.95;;;;;;;-0.08;78.39;98286.44;5095920;28;20071;-82
2022/01/01 02:13:26;;;;;;;28.17;14.02;;;;;;;-0.11;77.96;98276.09;5094436;28;20074;-82
2022/01/01 02:18:22;;;;;;;27.63;13.95;;;;;;;0.05;78.17;98296.13;5095610;28;20063;-83
2022/01/01 02:20:49;;;;;;;28.02;13.73;;;;;;;0.00;77.50;98302.88;5094335;28;20145;-83
2022/01/01 02:23:21;;;;;;;29.80;15.45;;;;;;;-0.03;77.76;98292.53;5096033;28;20064;-83
2022/01/01 02:25:49;;;;;;;27.45;14.13;;;;;;;0.07;77.75;98304.72;5095775;28;20052;-83
2022/01/01 02:28:17;;;;;;;27.77;14.63;;;;;;;0.06;78.11;98299.56;5093895;28;20121;-82
2022/01/01 02:30:44;;;;;;;30.48;13.93;;;;;;;0.06;78.05;98302.13;5094576;28;20044;-83
2022/01/01 02:33:11;;;;;;;27.25;14.18;;;;;;;0.02;77.96;98308.88;5095524;28;20043;-84
2022/01/01 02:35:38;;;;;;;29.17;15.02;;;;;;;0.13;78.09;98298.81;5094490;28;20047;-83
2022/01/01 02:38:07;;;;;;;29.23;14.18;;;;;;;0.08;77.39;98285.91;5099558;28;20052;-85
2022/01/01 02:40:34;;;;;;;26.83;13.57;;;;;;;0.15;77.42;98310.88;5096508;28;20051;-82
2022/01/01 02:43:02;;;;;;;27.02;13.68;;;;;;;0.14;77.08;98305.72;5095214;28;20456;-82
2022/01/01 02:45:30;;;;;;;27.67;14.20;;;;;;;0.12;77.42;98302.25;5096702;28;20071;-83
2022/01/01 02:48:00;;;;;;;25.08;12.88;;;;;;;0.17;77.19;98296.38;5098240;28;20052;-82
2022/01/01 02:50:27;;;;;;;28.10;13.75;;;;;;;0.15;77.12;98312.56;5081554;28;20578;-83
2022/01/01 02:52:54;;;;;;;24.88;13.25;;;;;;;0.02;77.77;98290.91;5095166;28;20056;-83
2022/01/01 02:55:21;;;;;;;27.13;13.05;;;;;;;-0.13;77.70;98267.50;5094438;28;20105;-83
2022/01/01 02:57:48;;;;;;;23.63;12.65;;;;;;;0.10;78.42;98294.50;5094714;28;20052;-83
2022/01/01 03:00:16;;;;;;;27.67;13.05;;;;;;;0.17;77.86;98291.25;5094691;28;20413;-83
2022/01/01 03:02:45;;;;;;;23.48;12.48;;;;;;;0.16;77.38;98286.91;5095691;28;20113;-83
2022/01/01 03:05:12;;;;;;;21.73;10.83;;;;;;;0.10;77.64;98273.97;5080468;28;20062;-84
2022/01/01 03:07:39;;;;;;;21.38;11.85;;;;;;;0.10;77.00;98281.66;5091901;28;20428;-84
2022/01/01 03:10:07;;;;;;;22.48;11.00;;;;;;;0.10;77.35;98294.50;5075938;28;20068;-84
2022/01/01 03:12:34;;;;;;;21.45;10.95;;;;;;;0.07;77.44;98279.03;5092140;28;20105;-83
2022/01/01 03:15:01;;;;;;;22.17;11.68;;;;;;;0.05;77.18;98275.59;5087675;28;20040;-82
2022/01/01 03:17:29;;;;;;;21.77;11.10;;;;;;;0.04;77.67;98284.09;5072911;28;20056;-83
2022/01/01 03:19:56;;;;;;;23.00;11.32;;;;;;;-0.04;77.87;98266.00;5074122;28;20122;-82
2022/01/01 03:22:23;;;;;;;22.23;11.45;;;;;;;0.12;77.60;98284.28;5074110;28;20052;-83
2022/01/01 03:24:50;;;;;;;21.38;11.15;;;;;;;0.14;77.66;98288.59;5072391;28;20056;-83
2022/01/01 03:27:17;;;;;;;19.65;10.85;;;;;;;0.12;77.59;98271.44;5073538;28;20052;-82
2022/01/01 03:29:44;;;;;;;21.67;11.10;;;;;;;0.16;78.02;98280.94;5074110;28;20060;-81
2022/01/01 03:32:11;;;;;;;21.50;10.63;;;;;;;0.17;77.73;98269.81;5073978;28;20064;-84
2022/01/01 03:34:38;;;;;;;20.38;10.50;;;;;;;0.24;77.72;98269.09;5073673;28;20044;-83
2022/01/01 03:37:05;;;;;;;20.92;10.88;;;;;;;0.31;77.31;98270.94;5075210;28;20087;-80
2022/01/01 03:39:32;;;;;;;19.00;10.10;;;;;;;0.19;77.56;98255.28;5074859;28;20135;-82
2022/01/01 03:41:59;;;;;;;18.92;9.93;;;;;;;0.24;77.54;98268.22;5073225;28;20052;-83
2022/01/01 03:44:26;;;;;;;21.33;11.15;;;;;;;0.26;77.50;98270.00;5073862;28;20052;-83
2022/01/01 03:47:00;;;;;;;19.33;10.20;;;;;;;0.31;77.15;98268.38;5074819;28;20052;-82
2022/01/01 03:49:27;;;;;;;20.15;9.90;;;;;;;0.30;77.22;98253.81;5075334;28;20075;-84
2022/01/01 03:51:54;;;;;;;19.98;9.85;;;;;;;0.38;77.35;98272.78;5073918;28;20048;-83
2022/01/01 03:54:21;;;;;;;19.25;10.15;;;;;;;0.43;77.19;98262.63;5073693;28;20116;-83
2022/01/01 03:56:48;;;;;;;18.20;10.18;;;;;;;0.37;76.63;98250.50;5073331;28;20048;-83
2022/01/01 03:59:15;;;;;;;18.85;9.55;;;;;;;0.32;77.28;98264.09;5074084;28;20476;-83
2022/01/01 04:01:42;;;;;;;20.00;9.85;;;;;;;0.18;77.25;98240.75;5079804;28;20463;-83
2022/01/01 04:04:12;;;;;;;21.17;10.40;;;;;;;0.16;77.49;98247.53;5094180;28;20126;-83
2022/01/01 04:06:39;;;;;;;18.42;9.32;;;;;;;0.26;77.72;98258.84;5087639;28;20079;-82
2022/01/01 04:09:06;;;;;;;18.83;9.73;;;;;;;0.39;77.19;98271.97;5072144;28;20064;-83
2022/01/01 04:11:33;;;;;;;19.85;10.00;;;;;;;0.44;76.95;98260.91;5054606;28;20097;-83
2022/01/01 04:14:00;;;;;;;19.58;9.95;;;;;;;0.41;76.84;98261.72;5073661;28;20052;-84
2022/01/01 04:16:26;;;;;;;20.35;9.80;;;;;;;0.43;76.78;98267.75;5073717;28;20571;-83
2022/01/01 04:18:54;;;;;;;20.30;10.52;;;;;;;0.30;77.37;98246.09;5072295;28;20132;-84
2022/01/01 04:21:21;;;;;;;19.73;9.40;;;;;;;0.26;77.17;98259.72;5079023;28;20052;-84
2022/01/01 04:23:47;;;;;;;18.63;9.85;;;;;;;-0.01;77.52;98224.97;5090127;28;20410;-82
2022/01/01 04:26:14;;;;;;;20.83;10.13;;;;;;;0.18;77.60;98257.00;5074142;28;20086;-83
2022/01/01 04:28:41;;;;;;;21.05;10.43;;;;;;;0.14;77.49;98262.91;5071798;28;20105;-83
2022/01/01 04:31:08;;;;;;;21.05;10.25;;;;;;;0.01;77.48;98242.97;5085982;28;20478;-82
2022/01/01 04:33:36;;;;;;;22.48;10.27;;;;;;;0.08;77.81;98260.22;5076560;28;20071;-83
2022/01/01 04:36:03;;;;;;;20.50;10.20;;;;;;;0.05;78.28;98259.31;5075760;28;20052;-84
2022/01/01 04:40:57;;;;;;;21.80;10.27;;;;;;;0.20;77.29;98257.91;5078400;28;20057;-82
2022/01/01 04:43:24;;;;;;;20.30;10.57;;;;;;;0.35;77.44;98277.00;5080085;28;20044;-83
2022/01/01 04:45:51;;;;;;;21.23;10.35;;;;;;;0.40;77.56;98280.53;5085048;28;20083;-79
2022/01/01 04:48:18;;;;;;;23.20;9.80;;;;;;;0.46;77.54;98269.50;5100082;28;20113;-78
2022/01/01 04:50:45;;;;;;;20.55;10.98;;;;;;;0.49;77.29;98269.53;5097121;28;20097;-79
2022/01/01 04:53:16;;;;;;;22.92;10.55;;;;;;;0.46;77.13;98249.81;5079779;28;20080;-82
2022/01/01 04:55:44;;;;;;;22.80;10.95;;;;;;;0.50;77.40;98263.59;5079280;28;20044;-82
2022/01/01 04:58:10;;;;;;;25.15;10.85;;;;;;;0.57;77.17;98262.84;5078448;28;20052;-82
2022/01/01 05:00:37;;;;;;;22.42;10.95;;;;;;;0.60;77.02;98266.34;5078269;28;20090;-81
2022/01/01 05:03:04;;;;;;;21.63;9.82;;;;;;;0.55;76.86;98252.53;5077997;28;20064;-86
2022/01/01 05:05:32;;;;;;;21.50;10.45;;;;;;;0.67;76.74;98269.88;5077755;28;20080;-83
2022/01/01 05:07:58;;;;;;;21.45;11.43;;;;;;;0.58;76.79;98272.25;5077480;28;20063;-84
2022/01/01 05:10:26;;;;;;;24.30;11.85;;;;;;;0.63;76.89;98274.94;5076734;28;20174;-85
2022/01/01 05:12:53;;;;;;;22.13;11.02;;;;;;;0.57;76.80;98276.56;5075823;28;20053;-84
2022/01/01 05:15:20;;;;;;;25.23;11.95;;;;;;;0.63;76.74;98275.81;5075750;28;20049;-84
2022/01/01 05:17:47;;;;;;;24.63;12.10;;;;;;;0.67;76.46;98287.88;5076661;28;20056;-85
2022/01/01 05:20:14;;;;;;;25.00;11.60;;;;;;;0.59;76.75;98286.88;5058625;28;20539;-85
2022/01/01 05:22:41;;;;;;;27.42;12.07;;;;;;;0.59;76.75;98297.16;5077359;28;20056;-84
2022/01/01 05:25:09;;;;;;;26.52;12.38;;;;;;;0.53;77.83;98291.88;5079187;28;20053;-84
2022/01/01 05:27:36;;;;;;;24.13;11.77;;;;;;;0.52;77.44;98279.91;5084795;28;20087;-83
2022/01/01 05:30:07;;;;;;;25.58;13.27;;;;;;;0.65;77.20;98298.97;5084015;28;20106;-83
2022/01/01 05:32:34;;;;;;;28.35;12.68;;;;;;;0.64;77.54;98286.94;5093632;28;20101;-83
2022/01/01 05:35:02;;;;;;;27.02;12.45;;;;;;;0.59;77.37;98298.00;5079026;28;20486;-86
2022/01/01 05:37:32;;;;;;;25.67;12.43;;;;;;;0.65;77.45;98296.41;5096330;28;20056;-83
2022/01/01 05:39:59;;;;;;;27.15;12.13;;;;;;;0.64;77.20;98294.66;5095581;28;20058;-87
2022/01/01 05:42:32;;;;;;;28.48;11.77;;;;;;;0.65;77.23;98297.25;5092530;28;20456;-85
2022/01/01 05:45:04;;;;;;;24.25;11.75;;;;;;;0.68;77.41;98314.44;5079324;28;20053;-85
2022/01/01 05:47:32;;;;;;;24.77;12.63;;;;;;;0.63;77.20;98301.50;5081617;28;20056;-86
2022/01/01 05:49:59;;;;;;;24.83;11.68;;;;;;;0.74;77.36;98314.53;5074063;28;20044;-86
2022/01/01 05:52:26;;;;;;;25.98;12.25;;;;;;;0.73;77.17;98303.41;5074885;28;20142;-85
2022/01/01 05:54:53;;;;;;;26.17;12.77;;;;;;;0.76;76.97;98310.31;5076075;28;20498;-84
2022/01/01 05:57:19;;;;;;;26.23;12.13;;;;;;;0.73;77.18;98305.09;5075801;28;20056;-85
2022/01/01 05:59:46;;;;;;;23.98;12.00;;;;;;;0.79;77.58;98302.63;5075105;28;20052;-85
2022/01/01 06:02:13;;;;;;;24.80;11.77;;;;;;;0.78;77.18;98312.06;5092865;28;20497;-85
2022/01/01 06:04:40;;;;;;;25.77;12.38;;;;;;;0.82;77.10;98318.97;5095849;28;20513;-85
2022/01/01 06:07:08;;;;;;;23.50;11.18;;;;;;;0.75;77.23;98285.41;5095985;28;20533;-85
2022/01/01 06:09:38;;;;;;;23.92;11.73;;;;;;;0.77;77.11;98288.88;5094838;28;20051;-85
2022/01/01 06:12:05;;;;;;;25.33;11.88;;;;;;;0.86;77.11;98301.91;5095947;28;20059;-83
2022/01/01 06:14:32;;;;;;;24.48;11.30;;;;;;;0.85;76.71;98300.16;5095415;28;20048;-85
2022/01/01 06:17:01;;;;;;;30.52;12.18;;;;;;;0.77;76.97;98276.03;5095588;28;20090;-83
2022/01/01 06:19:28;;;;;;;37.70;13.93;;;;;;;0.91;76.93;98312.28;5095491;28;20114;-85
2022/01/01 06:21:57;;;;;;;33.63;14.07;;;;;;;0.94;76.82;98307.16;5095266;28;20056;-84
2022/01/01 06:24:25;;;;;;;46.60;16.42;;;;;;;0.93;76.65;98314.03;5096894;28;20184;-84
2022/01/01 06:26:53;;;;;;;39.45;14.93;;;;;;;0.96;76.62;98306.34;5095536;28;20071;-87
2022/01/01 06:29:24;;;;;;;41.67;16.50;;;;;;;0.96;76.96;98301.19;5095304;28;20621;-86
2022/01/01 06:31:51;;;;;;;67.55;23.52;;;;;;;0.96;76.63;98297.78;5095550;28;20056;-86
2022/01/01 06:34:18;;;;;;;70.32;22.80;;;;;;;1.00;76.79;98291.84;5095412;28;20071;-86
2022/01/01 06:36:50;;;;;;;54.90;18.23;;;;;;;1.07;76.67;98292.81;5095627;28;20467;-87
2022/01/01 06:39:18;;;;;;;42.42;15.82;;;;;;;1.08;76.61;98291.97;5095175;28;20052;-89
2022/01/01 06:41:45;;;;;;;27.42;11.85;;;;;;;1.06;76.56;98293.66;5095677;28;20097;-87
2022/01/01 06:44:12;;;;;;;20.35;10.73;;;;;;;1.05;76.17;98279.06;5095174;28;20048;-86
2022/01/01 06:46:39;;;;;;;23.98;11.07;;;;;;;1.14;76.02;98298.09;5096207;28;20067;-86
2022/01/01 06:49:06;;;;;;;32.35;12.25;;;;;;;1.04;76.32;98283.34;5099650;28;20048;-86
2022/01/01 06:51:33;;;;;;;24.52;11.45;;;;;;;1.16;76.22;98301.56;5094962;28;20079;-86
2022/01/01 06:54:00;;;;;;;23.27;11.27;;;;;;;1.18;76.33;98298.97;5095479;28;20063;-85
2022/01/01 06:56:27;;;;;;;24.88;12.13;;;;;;;1.19;76.61;98304.16;5099836;28;20039;-81
2022/01/01 06:58:54;;;;;;;23.63;12.15;;;;;;;1.21;76.08;98297.34;5094931;28;20448;-85
2022/01/01 07:01:21;;;;;;;25.85;12.27;;;;;;;1.21;76.17;98291.31;5095357;28;20051;-86
2022/01/01 07:03:51;;;;;;;20.60;10.55;;;;;;;1.20;75.55;98298.16;5096202;28;20044;-83
2022/01/01 07:06:20;;;;;;;30.02;13.73;;;;;;;1.04;75.83;98265.34;5102090;28;20054;-85
2022/01/01 07:08:47;;;;;;;26.38;12.35;;;;;;;1.01;75.54;98273.00;5095100;28;20531;-85
2022/01/01 07:11:16;;;;;;;27.23;12.23;;;;;;;1.07;75.64;98280.81;5098091;28;20066;-86
2022/01/01 07:13:43;;;;;;;23.42;11.73;;;;;;;1.13;75.78;98293.75;5100232;28;20044;-84
2022/01/01 07:16:11;;;;;;;23.13;11.25;;;;;;;1.22;75.72;98299.03;5090389;28;20052;-90
2022/01/01 07:18:38;;;;;;;22.77;11.20;;;;;;;1.25;76.09;98295.69;5099700;28;20569;-86
2022/01/01 07:21:05;;;;;;;24.05;11.45;;;;;;;1.27;75.60;98298.25;5090499;28;20045;-85
2022/01/01 07:23:32;;;;;;;22.13;11.77;;;;;;;1.19;75.86;98293.00;5101923;28;20109;-88
2022/01/01 07:25:59;;;;;;;22.10;11.30;;;;;;;1.25;75.84;98302.50;5098802;28;20052;-88
2022/01/01 07:28:26;;;;;;;23.33;11.43;;;;;;;1.31;75.57;98307.75;5065384;28;20059;-83
2022/01/01 07:31:04;;;;;;;31.48;13.15;;;;;;;1.29;75.34;98306.84;5097129;28;20081;-87
2022/01/01 07:33:40;;;;;;;24.33;11.02;;;;;;;1.31;75.73;98313.78;5103830;28;20508;-85
2022/01/01 07:36:07;;;;;;;27.02;12.45;;;;;;;1.41;75.32;98317.34;5097010;28;20048;-82
2022/01/01 07:38:34;;;;;;;56.90;19.67;;;;;;;1.47;75.12;98314.88;5095830;28;20056;-82
2022/01/01 07:41:01;;;;;;;38.10;14.90;;;;;;;1.51;74.87;98313.22;5096724;28;20056;-86
2022/01/01 07:43:29;;;;;;;24.15;10.95;;;;;;;1.42;74.81;98290.78;5095380;28;20063;-86
2022/01/01 07:45:56;;;;;;;21.67;10.43;;;;;;;1.50;74.69;98304.59;5095718;28;20060;-85
2022/01/01 07:48:24;;;;;;;24.63;11.65;;;;;;;1.62;74.84;98319.38;5099422;28;20028;-83
2022/01/01 07:50:51;;;;;;;24.45;11.10;;;;;;;1.55;74.60;98326.16;5094497;28;20059;-85
2022/01/01 07:53:17;;;;;;;25.17;11.85;;;;;;;1.62;74.88;98314.22;5089705;28;20044;-84
2022/01/01 07:55:45;;;;;;;26.60;11.43;;;;;;;1.71;74.68;98321.22;5086528;28;20074;-82
2022/01/01 07:58:12;;;;;;;30.17;13.07;;;;;;;1.68;74.02;98309.19;5098373;28;20078;-84
2022/01/01 08:00:39;;;;;;;21.33;10.77;;;;;;;1.73;73.92;98317.81;5093137;28;20104;-82
2022/01/01 08:03:06;;;;;;;21.60;10.75;;;;;;;1.68;74.31;98309.19;5093961;28;20097;-82
2022/01/01 08:05:33;;;;;;;28.42;12.65;;;;;;;1.79;74.16;98323.06;5092884;28;20056;-83
2022/01/01 08:08:00;;;;;;;35.15;15.13;;;;;;;1.74;73.79;98310.94;5094547;28;20569;-83
2022/01/01 08:10:30;;;;;;;38.55;16.52;;;;;;;1.78;73.96;98310.16;5092892;28;20059;-83
2022/01/01 08:12:58;;;;;;;26.95;13.38;;;;;;;1.88;74.21;98318.88;5094627;28;20061;-83
2022/01/01 08:15:25;;;;;;;29.05;13.95;;;;;;;1.81;73.37;98308.50;5099333;28;20048;-83
2022/01/01 08:17:52;;;;;;;27.75;13.50;;;;;;;1.94;73.63;98331.84;5094050;28;20056;-82
2022/01/01 08:20:19;;;;;;;34.20;14.70;;;;;;;2.02;73.21;98333.66;5093526;28;20078;-84
2022/01/01 08:22:46;;;;;;;35.60;15.50;;;;;;;1.99;73.05;98336.19;5092926;28;20055;-85
2022/01/01 08:25:16;;;;;;;29.02;12.55;;;;;;;1.83;73.13;98324.81;5094929;28;20075;-83
2022/01/01 08:27:43;;;;;;;23.42;10.52;;;;;;;1.80;73.38;98335.06;5093460;28;20050;-84
2022/01/01 08:30:10;;;;;;;21.83;10.55;;;;;;;1.76;73.52;98335.88;5094574;28;20472;-85
2022/01/01 08:32:37;;;;;;;25.88;12.32;;;;;;;1.74;73.43;98342.72;5094376;28;20116;-84
2022/01/01 08:35:05;;;;;;;23.77;12.07;;;;;;;1.63;73.84;98316.84;5101793;28;20079;-84
2022/01/01 08:37:32;;;;;;;35.45;14.38;;;;;;;1.74;73.60;98334.13;5098590;28;20464;-83
2022/01/01 08:39:59;;;;;;;43.70;18.63;;;;;;;1.64;73.58;98310.84;5112725;28;20059;-81
2022/01/01 08:42:26;;;;;;;32.33;14.27;;;;;;;1.74;73.47;98331.53;5111353;28;20050;-81
2022/01/01 08:44:53;;;;;;;25.88;12.70;;;;;;;1.75;73.37;98333.28;5096966;28;20056;-84
2022/01/01 08:47:24;;;;;;;28.23;12.32;;;;;;;1.76;73.23;98335.00;5094903;28;20084;-83
2022/01/01 08:49:54;;;;;;;31.67;14.13;;;;;;;1.75;73.35;98331.56;5095598;28;20059;-83
2022/01/01 08:52:22;;;;;;;30.40;13.33;;;;;;;1.69;73.24;98326.34;5095856;28;20052;-84
2022/01/01 08:54:55;;;;;;;24.15;12.43;;;;;;;1.65;73.39;98329.72;5093663;28;20317;-85
2022/01/01 08:57:26;;;;;;;22.88;11.45;;;;;;;1.69;73.49;98328.06;5093709;28;20056;-84
2022/01/01 08:59:53;;;;;;;22.13;11.18;;;;;;;1.64;73.10;98328.00;5091716;28;20059;-84
2022/01/01 09:02:20;;;;;;;19.98;11.48;;;;;;;1.56;73.68;98311.56;5093339;28;20059;-85
2022/01/01 09:04:47;;;;;;;22.85;11.27;;;;;;;1.57;73.35;98305.56;5093248;28;20051;-85
2022/01/01 09:07:14;;;;;;;21.52;11.07;;;;;;;1.65;73.22;98337.44;5092405;28;20048;-84
2022/01/01 09:09:41;;;;;;;23.70;12.18;;;;;;;1.60;73.48;98331.38;5092602;28;20067;-86
2022/01/01 09:12:10;;;;;;;25.77;12.32;;;;;;;1.69;73.40;98328.91;5092991;28;20056;-83
2022/01/01 09:14:38;;;;;;;25.73;12.52;;;;;;;1.71;73.67;98324.66;5093427;28;20129;-82
2022/01/01 09:17:06;;;;;;;23.80;11.60;;;;;;;1.70;73.51;98319.47;5093437;28;20109;-85
2022/01/01 09:19:33;;;;;;;25.27;11.73;;;;;;;1.60;73.51;98314.19;5093148;28;20421;-83
2022/01/01 09:22:00;;;;;;;22.85;12.32;;;;;;;1.64;73.58;98335.72;5096913;28;20052;-84
2022/01/01 09:24:27;;;;;;;20.85;11.80;;;;;;;1.60;73.60;98321.91;5097590;28;20166;-85
2022/01/01 09:26:55;;;;;;;24.80;12.07;;;;;;;1.62;74.10;98327.09;5095484;28;20048;-84
2022/01/01 09:29:22;;;;;;;27.13;13.73;;;;;;;1.68;73.53;98316.91;5096678;28;20143;-85
2022/01/01 09:31:49;;;;;;;24.83;13.35;;;;;;;1.71;73.44;98327.22;5097452;28;20039;-83
2022/01/01 09:34:16;;;;;;;26.98;13.95;;;;;;;1.75;73.43;98323.84;5096851;28;20059;-82
2022/01/01 09:36:44;;;;;;;25.30;13.55;;;;;;;1.80;73.58;98334.22;5063364;28;20075;-84
2022/01/01 09:39:11;;;;;;;23.63;12.05;;;;;;;1.82;73.20;98332.53;5098252;28;20052;-85
2022/01/01 09:41:42;;;;;;;23.02;12.80;;;;;;;1.89;73.34;98320.59;5098169;28;20048;-84
2022/01/01 09:44:14;;;;;;;26.20;13.20;;;;;;;1.84;72.78;98318.81;5098030;28;20529;-85
2022/01/01 09:46:44;;;;;;;26.63;13.07;;;;;;;1.81;73.30;98316.22;5097855;28;20052;-84
2022/01/01 09:49:16;;;;;;;30.50;14.45;;;;;;;1.83;73.30;98305.94;5078137;28;20058;-84
2022/01/01 09:51:44;;;;;;;28.95;14.38;;;;;;;1.96;73.58;98306.97;5095134;28;20052;-86
2022/01/01 09:54:12;;;;;;;29.77;15.80;;;;;;;2.05;73.05;98314.81;5096183;28;20056;-84
2022/01/01 09:56:39;;;;;;;25.70;13.23;;;;;;;1.99;72.66;98294.97;5094785;28;20059;-85
2022/01/01 09:59:06;;;;;;;25.60;14.48;;;;;;;2.02;72.85;98314.75;5097382;28;20109;-85
2022/01/01 10:01:34;;;;;;;23.60;12.68;;;;;;;1.99;72.81;98307.84;5095912;28;20044;-86
2022/01/01 10:04:11;;;;;;;23.63;12.10;;;;;;;2.00;72.16;98304.44;5095600;28;20147;-84
2022/01/01 10:06:39;;;;;;;25.65;12.93;;;;;;;1.98;72.33;98306.16;5096302;28;20052;-84
2022/01/01 10:09:08;;;;;;;26.25;13.02;;;;;;;1.81;72.51;98272.44;5095471;28;20493;-83
2022/01/01 10:11:36;;;;;;;23.85;12.05;;;;;;;1.84;72.49;98282.78;5095720;28;20055;-82
2022/01/01 10:14:07;;;;;;;22.23;11.52;;;;;;;1.93;72.21;98300.03;5095563;28;20056;-83
2022/01/01 10:16:44;;;;;;;;;;;;;;;1.83;72.59;98305.94;5094594;28;20429;-81
2022/01/01 10:19:12;;;;;;;21.02;11.02;;;;;;;1.88;72.04;98312.00;5095913;28;19939;-83
2022/01/01 10:21:41;;;;;;;21.80;11.38;;;;;;;1.76;72.06;98288.66;5095461;28;20050;-81
2022/01/01 10:24:29;;;;;;;22.03;11.10;;;;;;;1.71;72.15;98313.50;5093985;28;20113;-82
2022/01/01 10:29:56;;;;;;;20.70;10.70;;;;;;;1.66;72.29;98303.13;5074770;28;20131;-85
2022/01/01 10:32:24;;;;;;;19.35;10.13;;;;;;;1.59;71.70;98283.28;5074636;28;20490;-84
2022/01/01 10:34:51;;;;;;;19.20;9.20;;;;;;;1.46;71.66;98273.66;5075773;28;20053;-85
2022/01/01 10:37:33;;;;;;;17.63;9.65;;;;;;;1.45;71.96;98285.69;5078833;28;20528;-83
2022/01/01 10:40:00;;;;;;;17.40;8.88;;;;;;;1.50;72.42;98288.31;5083740;28;20094;-86
2022/01/01 10:42:29;;;;;;;19.90;9.82;;;;;;;1.48;71.96;98275.41;5074493;28;20052;-87
2022/01/01 10:44:56;;;;;;;19.15;10.07;;;;;;;1.60;71.59;98293.59;5090797;28;20052;-86
2022/01/01 10:47:32;;;;;;;18.95;9.25;;;;;;;1.61;71.53;98297.03;5081685;28;20056;-85
2022/01/01 10:52:47;;;;;;;19.13;8.80;;;;;;;1.52;71.67;98297.78;5076230;28;20092;-87
2022/01/01 10:55:16;;;;;;;20.48;9.82;;;;;;;1.38;71.48;98278.72;5083979;28;20059;-86
2022/01/01 10:57:55;;;;;;;14.40;6.88;;;;;;;1.47;71.13;98309.72;5095566;28;20078;-85
2022/01/01 11:00:24;;;;;;;14.90;6.88;;;;;;;1.34;70.34;98310.38;5094670;28;20056;-86
2022/01/01 11:02:57;;;;;;;13.05;6.53;;;;;;;1.21;70.65;98311.91;5094900;28;20113;-85
2022/01/01 11:05:33;;;;;;;10.15;6.30;;;;;;;1.06;71.14;98296.22;5095591;28;20164;-84
2022/01/01 11:08:01;;;;;;;13.02;6.78;;;;;;;1.11;71.39;98297.16;5095641;28;20097;-84
2022/01/01 11:10:29;;;;;;;14.00;6.93;;;;;;;1.08;70.84;98303.13;5093312;28;20063;-85
2022/01/01 11:12:57;;;;;;;13.90;6.45;;;;;;;0.98;71.06;98303.81;5093316;28;20051;-81
2022/01/01 11:15:24;;;;;;;13.18;6.50;;;;;;;0.85;71.64;98292.44;5095111;28;20497;-82
2022/01/01 11:17:52;;;;;;;9.45;5.13;;;;;;;0.90;71.57;98297.66;5093896;28;20429;-85
2022/01/01 11:20:20;;;;;;;13.73;6.22;;;;;;;0.93;70.96;98302.88;5094369;28;20132;-86
2022/01/01 11:22:48;;;;;;;11.77;6.05;;;;;;;0.77;71.39;98286.31;5088389;28;20132;-83
2022/01/01 11:25:17;;;;;;;13.35;7.22;;;;;;;0.80;71.44;98301.81;5071911;28;20111;-82
2022/01/01 11:27:45;;;;;;;12.40;6.35;;;;;;;0.76;71.49;98294.88;5073713;28;20113;-84
2022/01/01 11:30:15;;;;;;;14.48;6.45;;;;;;;0.71;71.60;98274.25;5073891;28;20052;-83
2022/01/01 11:32:54;;;;;;;12.15;6.00;;;;;;;0.81;71.17;98308.66;5077594;28;20082;-83
2022/01/01 11:35:22;;;;;;;9.52;5.82;;;;;;;0.71;71.91;98314.47;5073556;28;20146;-81
2022/01/01 11:38:00;;;;;;;12.63;5.97;;;;;;;0.67;71.55;98320.38;5074486;28;20052;-82
2022/01/01 11:40:33;;;;;;;11.50;5.80;;;;;;;0.63;71.86;98313.50;5074216;28;20056;-82